sensor_id;sensor_type;location;lat;lon;timestamp;temperature;humidity
70928;SHT31;58587;53.034;18.576;2023-05-02T05:58:52;12.22;64.81
70928;SHT31;58587;53.034;18.576;2023-05-02T06:01:18;12.27;66.25
70928;SHT31;58587;53.034;18.576;2023-05-02T06:03:44;12.34;67.02
70928;SHT31;58587;53.034;18.576;2023-05-02T06:06:09;12.31;66.24
70928;SHT31;58587;53.034;18.576;2023-05-02T06:08:34;12.38;66.00
70928;SHT31;58587;53.034;18.576;2023-05-02T06:11:00;12.41;66.22
70928;SHT31;58587;53.034;18.576;2023-05-02T06:13:25;12.45;67.26
70928;SHT31;58587;53.034;18.576;2023-05-02T06:15:50;12.49;66.44
70928;SHT31;58587;53.034;18.576;2023-05-02T06:18:16;12.59;66.95
70928;SHT31;58587;53.034;18.576;2023-05-02T06:20:41;12.68;66.36
70928;SHT31;58587;53.034;18.576;2023-05-02T06:23:06;12.63;67.39
70928;SHT31;58587;53.034;18.576;2023-05-02T06:25:32;12.75;68.02
70928;SHT31;58587;53.034;18.576;2023-05-02T06:27:58;12.72;68.96
70928;SHT31;58587;53.034;18.576;2023-05-02T06:30:23;12.78;67.84
70928;SHT31;58587;53.034;18.576;2023-05-02T06:32:49;12.73;69.37
70928;SHT31;58587;53.034;18.576;2023-05-02T06:35:14;12.85;68.78
70928;SHT31;58587;53.034;18.576;2023-05-02T06:37:40;12.83;68.80
70928;SHT31;58587;53.034;18.576;2023-05-02T06:40:06;12.91;68.89
70928;SHT31;58587;53.034;18.576;2023-05-02T06:42:31;12.86;69.54
70928;SHT31;58587;53.034;18.576;2023-05-02T06:44:56;12.93;69.03
70928;SHT31;58587;53.034;18.576;2023-05-02T06:47:22;12.95;69.29
70928;SHT31;58587;53.034;18.576;2023-05-02T06:49:50;12.99;68.99
70928;SHT31;58587;53.034;18.576;2023-05-02T06:52:15;12.93;70.09
70928;SHT31;58587;53.034;18.576;2023-05-02T06:54:40;12.97;70.93
70928;SHT31;58587;53.034;18.576;2023-05-02T06:57:06;12.86;71.45
70928;SHT31;58587;53.034;18.576;2023-05-02T06:59:32;12.92;72.18
70928;SHT31;58587;53.034;18.576;2023-05-02T07:01:57;12.81;73.24
70928;SHT31;58587;53.034;18.576;2023-05-02T07:04:22;12.89;73.44
70928;SHT31;58587;53.034;18.576;2023-05-02T07:06:47;12.86;74.66
70928;SHT31;58587;53.034;18.576;2023-05-02T07:09:13;12.91;75.75
70928;SHT31;58587;53.034;18.576;2023-05-02T07:11:38;12.85;75.47
70928;SHT31;58587;53.034;18.576;2023-05-02T07:14:03;12.54;75.39
70928;SHT31;58587;53.034;18.576;2023-05-02T07:16:29;12.46;76.28
70928;SHT31;58587;53.034;18.576;2023-05-02T07:18:54;12.51;76.32
70928;SHT31;58587;53.034;18.576;2023-05-02T07:21:20;12.48;77.24
70928;SHT31;58587;53.034;18.576;2023-05-02T07:23:45;12.44;77.37
70928;SHT31;58587;53.034;18.576;2023-05-02T07:26:11;12.62;77.42
70928;SHT31;58587;53.034;18.576;2023-05-02T07:28:36;12.62;76.93
70928;SHT31;58587;53.034;18.576;2023-05-02T07:31:01;12.63;77.17
70928;SHT31;58587;53.034;18.576;2023-05-02T07:33:27;12.66;76.62
70928;SHT31;58587;53.034;18.576;2023-05-02T07:35:54;12.54;77.03
70928;SHT31;58587;53.034;18.576;2023-05-02T07:38:19;12.52;77.68
70928;SHT31;58587;53.034;18.576;2023-05-02T07:40:45;12.54;78.16
70928;SHT31;58587;53.034;18.576;2023-05-02T07:43:11;12.58;78.04
70928;SHT31;58587;53.034;18.576;2023-05-02T07:45:36;12.58;78.15
70928;SHT31;58587;53.034;18.576;2023-05-02T07:48:02;12.55;78.22
70928;SHT31;58587;53.034;18.576;2023-05-02T07:50:28;12.52;77.82
70928;SHT31;58587;53.034;18.576;2023-05-02T07:52:56;12.55;78.74
70928;SHT31;58587;53.034;18.576;2023-05-02T07:55:21;12.51;77.30
70928;SHT31;58587;53.034;18.576;2023-05-02T07:57:47;12.48;78.08
70928;SHT31;58587;53.034;18.576;2023-05-02T08:00:13;12.51;77.58
70928;SHT31;58587;53.034;18.576;2023-05-02T08:02:39;12.56;78.91
70928;SHT31;58587;53.034;18.576;2023-05-02T08:05:05;12.63;78.13
70928;SHT31;58587;53.034;18.576;2023-05-02T08:07:31;12.68;78.39
70928;SHT31;58587;53.034;18.576;2023-05-02T08:09:57;12.72;77.62
70928;SHT31;58587;53.034;18.576;2023-05-02T08:12:22;12.78;77.56
70928;SHT31;58587;53.034;18.576;2023-05-02T08:14:48;12.79;77.46
70928;SHT31;58587;53.034;18.576;2023-05-02T08:17:13;12.89;76.93
70928;SHT31;58587;53.034;18.576;2023-05-02T08:19:39;12.95;76.38
70928;SHT31;58587;53.034;18.576;2023-05-02T08:22:07;13.03;75.91
70928;SHT31;58587;53.034;18.576;2023-05-02T08:24:33;13.02;76.08
70928;SHT31;58587;53.034;18.576;2023-05-02T08:26:58;13.12;75.91
70928;SHT31;58587;53.034;18.576;2023-05-02T08:29:23;13.20;74.99
70928;SHT31;58587;53.034;18.576;2023-05-02T08:31:52;13.36;74.36
70928;SHT31;58587;53.034;18.576;2023-05-02T08:34:20;13.50;73.30
70928;SHT31;58587;53.034;18.576;2023-05-02T08:36:46;13.60;73.63
70928;SHT31;58587;53.034;18.576;2023-05-02T08:39:11;13.63;71.84
70928;SHT31;58587;53.034;18.576;2023-05-02T08:41:37;13.77;72.52
70928;SHT31;58587;53.034;18.576;2023-05-02T08:44:03;13.85;71.29
70928;SHT31;58587;53.034;18.576;2023-05-02T08:46:39;13.98;70.99
70928;SHT31;58587;53.034;18.576;2023-05-02T08:49:20;14.11;69.96
70928;SHT31;58587;53.034;18.576;2023-05-02T08:51:53;14.26;70.63
70928;SHT31;58587;53.034;18.576;2023-05-02T08:54:20;14.33;68.04
70928;SHT31;58587;53.034;18.576;2023-05-02T08:56:46;14.48;69.06
70928;SHT31;58587;53.034;18.576;2023-05-02T08:59:11;14.59;67.72
70928;SHT31;58587;53.034;18.576;2023-05-02T09:01:39;14.93;69.94
70928;SHT31;58587;53.034;18.576;2023-05-02T09:04:05;15.19;68.45
70928;SHT31;58587;53.034;18.576;2023-05-02T09:06:31;15.37;64.27
70928;SHT31;58587;53.034;18.576;2023-05-02T09:08:59;15.58;64.30
70928;SHT31;58587;53.034;18.576;2023-05-02T09:11:28;15.82;63.76
70928;SHT31;58587;53.034;18.576;2023-05-02T09:13:53;16.06;63.22
70928;SHT31;58587;53.034;18.576;2023-05-02T09:16:21;16.22;62.79
70928;SHT31;58587;53.034;18.576;2023-05-02T09:18:52;16.43;61.13
70928;SHT31;58587;53.034;18.576;2023-05-02T09:23:50;16.67;58.23
70928;SHT31;58587;53.034;18.576;2023-05-02T09:26:24;16.83;57.07
70928;SHT31;58587;53.034;18.576;2023-05-02T09:28:54;16.97;56.76
70928;SHT31;58587;53.034;18.576;2023-05-02T09:31:38;17.04;57.25
70928;SHT31;58587;53.034;18.576;2023-05-02T09:34:08;17.18;57.15
70928;SHT31;58587;53.034;18.576;2023-05-02T09:36:43;17.34;59.23
70928;SHT31;58587;53.034;18.576;2023-05-02T09:39:13;17.44;55.40
70928;SHT31;58587;53.034;18.576;2023-05-02T09:41:51;17.58;55.89
70928;SHT31;58587;53.034;18.576;2023-05-02T09:44:19;17.74;55.24
70928;SHT31;58587;53.034;18.576;2023-05-02T09:46:45;17.81;54.47
70928;SHT31;58587;53.034;18.576;2023-05-02T09:49:10;17.92;53.53
70928;SHT31;58587;53.034;18.576;2023-05-02T09:51:36;18.02;53.17
70928;SHT31;58587;53.034;18.576;2023-05-02T09:54:02;18.17;53.66
70928;SHT31;58587;53.034;18.576;2023-05-02T09:56:27;18.32;52.97
70928;SHT31;58587;53.034;18.576;2023-05-02T09:59:15;18.53;52.73
70928;SHT31;58587;53.034;18.576;2023-05-02T10:01:41;18.68;53.88
70928;SHT31;58587;53.034;18.576;2023-05-02T10:04:11;18.90;52.68
70928;SHT31;58587;53.034;18.576;2023-05-02T10:06:42;18.95;51.35
70928;SHT31;58587;53.034;18.576;2023-05-02T10:09:08;19.05;48.18
70928;SHT31;58587;53.034;18.576;2023-05-02T10:11:37;19.15;48.02
70928;SHT31;58587;53.034;18.576;2023-05-02T10:14:04;19.12;45.24
70928;SHT31;58587;53.034;18.576;2023-05-02T10:16:35;19.14;45.02
70928;SHT31;58587;53.034;18.576;2023-05-02T10:19:06;19.12;45.31
70928;SHT31;58587;53.034;18.576;2023-05-02T10:21:33;19.05;44.22
70928;SHT31;58587;53.034;18.576;2023-05-02T10:24:00;19.07;44.95
70928;SHT31;58587;53.034;18.576;2023-05-02T10:26:27;19.05;45.09
70928;SHT31;58587;53.034;18.576;2023-05-02T10:28:55;19.10;45.69
70928;SHT31;58587;53.034;18.576;2023-05-02T10:31:21;19.11;44.85
70928;SHT31;58587;53.034;18.576;2023-05-02T10:33:50;19.26;45.45
70928;SHT31;58587;53.034;18.576;2023-05-02T10:36:19;19.18;45.57
70928;SHT31;58587;53.034;18.576;2023-05-02T10:38:45;19.16;45.20
70928;SHT31;58587;53.034;18.576;2023-05-02T10:41:14;18.92;45.10
70928;SHT31;58587;53.034;18.576;2023-05-02T10:43:40;18.71;43.67
70928;SHT31;58587;53.034;18.576;2023-05-02T10:46:32;18.74;44.05
70928;SHT31;58587;53.034;18.576;2023-05-02T10:49:05;18.75;44.99
70928;SHT31;58587;53.034;18.576;2023-05-02T10:51:31;18.63;44.65
70928;SHT31;58587;53.034;18.576;2023-05-02T10:59:42;18.80;46.00
70928;SHT31;58587;53.034;18.576;2023-05-02T11:05:00;18.67;45.53
70928;SHT31;58587;53.034;18.576;2023-05-02T11:07:27;18.67;46.31
70928;SHT31;58587;53.034;18.576;2023-05-02T11:12:54;18.71;45.99
70928;SHT31;58587;53.034;18.576;2023-05-02T11:20:27;18.97;44.87
70928;SHT31;58587;53.034;18.576;2023-05-02T11:22:54;19.16;44.84
70928;SHT31;58587;53.034;18.576;2023-05-02T11:25:30;19.36;44.47
70928;SHT31;58587;53.034;18.576;2023-05-02T11:27:56;19.41;43.27
70928;SHT31;58587;53.034;18.576;2023-05-02T11:30:42;19.21;44.03
70928;SHT31;58587;53.034;18.576;2023-05-02T11:35:34;19.11;42.68
70928;SHT31;58587;53.034;18.576;2023-05-02T11:38:01;19.39;42.19
70928;SHT31;58587;53.034;18.576;2023-05-02T11:40:27;19.69;43.00
70928;SHT31;58587;53.034;18.576;2023-05-02T11:42:53;19.77;42.79
70928;SHT31;58587;53.034;18.576;2023-05-02T11:45:19;19.70;41.51
70928;SHT31;58587;53.034;18.576;2023-05-02T11:47:49;19.67;40.68
70928;SHT31;58587;53.034;18.576;2023-05-02T11:50:15;19.77;42.77
70928;SHT31;58587;53.034;18.576;2023-05-02T11:52:43;19.65;40.81
70928;SHT31;58587;53.034;18.576;2023-05-02T11:55:13;19.56;41.22
70928;SHT31;58587;53.034;18.576;2023-05-02T11:57:40;19.79;42.16
70928;SHT31;58587;53.034;18.576;2023-05-02T12:00:06;19.82;40.61
70928;SHT31;58587;53.034;18.576;2023-05-02T12:02:43;19.96;39.75
70928;SHT31;58587;53.034;18.576;2023-05-02T12:05:13;19.80;39.85
70928;SHT31;58587;53.034;18.576;2023-05-02T12:07:45;19.89;41.00
70928;SHT31;58587;53.034;18.576;2023-05-02T12:10:12;19.83;40.96
70928;SHT31;58587;53.034;18.576;2023-05-02T12:12:38;19.83;40.29
70928;SHT31;58587;53.034;18.576;2023-05-02T12:15:06;19.61;39.85
70928;SHT31;58587;53.034;18.576;2023-05-02T12:17:33;19.52;41.37
70928;SHT31;58587;53.034;18.576;2023-05-02T12:19:59;19.48;41.27
70928;SHT31;58587;53.034;18.576;2023-05-02T12:22:27;19.49;41.70
70928;SHT31;58587;53.034;18.576;2023-05-02T12:24:52;19.46;41.51
70928;SHT31;58587;53.034;18.576;2023-05-02T12:27:18;19.25;42.07
70928;SHT31;58587;53.034;18.576;2023-05-02T12:29:46;19.28;42.48
70928;SHT31;58587;53.034;18.576;2023-05-02T12:32:12;19.42;41.82
70928;SHT31;58587;53.034;18.576;2023-05-02T12:34:38;19.43;41.70
70928;SHT31;58587;53.034;18.576;2023-05-02T12:37:05;19.42;42.08
70928;SHT31;58587;53.034;18.576;2023-05-02T12:39:34;19.53;41.81
70928;SHT31;58587;53.034;18.576;2023-05-02T12:42:08;19.74;42.42
70928;SHT31;58587;53.034;18.576;2023-05-02T12:44:41;19.82;42.35
70928;SHT31;58587;53.034;18.576;2023-05-02T12:47:08;19.69;41.44
70928;SHT31;58587;53.034;18.576;2023-05-02T12:52:15;19.59;41.61
70928;SHT31;58587;53.034;18.576;2023-05-02T12:54:41;19.42;42.21
70928;SHT31;58587;53.034;18.576;2023-05-02T12:57:06;19.48;42.57
70928;SHT31;58587;53.034;18.576;2023-05-02T12:59:32;19.63;42.65
70928;SHT31;58587;53.034;18.576;2023-05-02T13:01:58;20.00;42.78
70928;SHT31;58587;53.034;18.576;2023-05-02T13:04:37;20.00;41.25
70928;SHT31;58587;53.034;18.576;2023-05-02T13:07:03;20.13;41.98
70928;SHT31;58587;53.034;18.576;2023-05-02T13:09:29;20.28;41.95
70928;SHT31;58587;53.034;18.576;2023-05-02T13:11:54;20.27;41.01
70928;SHT31;58587;53.034;18.576;2023-05-02T13:14:21;20.20;41.36
70928;SHT31;58587;53.034;18.576;2023-05-02T13:16:48;20.09;41.16
70928;SHT31;58587;53.034;18.576;2023-05-02T13:19:13;19.92;41.73
70928;SHT31;58587;53.034;18.576;2023-05-02T13:21:42;20.10;42.07
70928;SHT31;58587;53.034;18.576;2023-05-02T13:24:07;20.10;42.78
70928;SHT31;58587;53.034;18.576;2023-05-02T13:26:32;19.80;42.05
70928;SHT31;58587;53.034;18.576;2023-05-02T13:28:59;19.83;42.16
70928;SHT31;58587;53.034;18.576;2023-05-02T13:31:24;19.61;42.23
70928;SHT31;58587;53.034;18.576;2023-05-02T13:33:50;19.58;42.69
70928;SHT31;58587;53.034;18.576;2023-05-02T13:36:15;19.35;42.39
70928;SHT31;58587;53.034;18.576;2023-05-02T13:38:41;19.42;43.21
70928;SHT31;58587;53.034;18.576;2023-05-02T13:41:06;19.51;42.47
70928;SHT31;58587;53.034;18.576;2023-05-02T13:43:32;19.93;44.05
70928;SHT31;58587;53.034;18.576;2023-05-02T13:45:57;20.37;44.40
70928;SHT31;58587;53.034;18.576;2023-05-02T13:48:22;20.41;45.27
70928;SHT31;58587;53.034;18.576;2023-05-02T13:50:47;20.82;45.50
70928;SHT31;58587;53.034;18.576;2023-05-02T13:53:13;20.87;45.31
70928;SHT31;58587;53.034;18.576;2023-05-02T13:55:38;20.92;45.50
70928;SHT31;58587;53.034;18.576;2023-05-02T13:58:03;21.10;45.84
70928;SHT31;58587;53.034;18.576;2023-05-02T14:00:29;21.47;45.70
70928;SHT31;58587;53.034;18.576;2023-05-02T14:02:55;21.36;45.16
70928;SHT31;58587;53.034;18.576;2023-05-02T14:05:20;21.22;44.79
70928;SHT31;58587;53.034;18.576;2023-05-02T14:07:46;21.53;45.03
70928;SHT31;58587;53.034;18.576;2023-05-02T14:10:11;21.42;44.80
70928;SHT31;58587;53.034;18.576;2023-05-02T14:12:36;21.50;45.03
70928;SHT31;58587;53.034;18.576;2023-05-02T14:15:02;21.54;44.31
70928;SHT31;58587;53.034;18.576;2023-05-02T14:17:27;21.43;44.98
70928;SHT31;58587;53.034;18.576;2023-05-02T14:19:52;21.33;45.06
70928;SHT31;58587;53.034;18.576;2023-05-02T14:22:18;21.18;44.76
70928;SHT31;58587;53.034;18.576;2023-05-02T14:24:43;21.16;45.54
70928;SHT31;58587;53.034;18.576;2023-05-02T14:27:08;21.00;45.14
70928;SHT31;58587;53.034;18.576;2023-05-02T14:29:38;20.81;45.70
70928;SHT31;58587;53.034;18.576;2023-05-02T14:32:03;20.59;46.30
70928;SHT31;58587;53.034;18.576;2023-05-02T14:34:29;20.69;47.34
70928;SHT31;58587;53.034;18.576;2023-05-02T14:36:54;20.84;47.70
70928;SHT31;58587;53.034;18.576;2023-05-02T14:39:20;20.81;47.09
70928;SHT31;58587;53.034;18.576;2023-05-02T14:41:45;20.92;47.21
70928;SHT31;58587;53.034;18.576;2023-05-02T14:44:11;21.02;47.27
70928;SHT31;58587;53.034;18.576;2023-05-02T14:46:36;21.12;46.85
70928;SHT31;58587;53.034;18.576;2023-05-02T14:49:02;21.26;46.78
70928;SHT31;58587;53.034;18.576;2023-05-02T14:51:27;20.91;46.57
70928;SHT31;58587;53.034;18.576;2023-05-02T14:53:53;20.51;47.15
70928;SHT31;58587;53.034;18.576;2023-05-02T14:56:18;20.71;47.37
70928;SHT31;58587;53.034;18.576;2023-05-02T14:58:44;20.31;47.02
70928;SHT31;58587;53.034;18.576;2023-05-02T15:01:19;20.06;47.63
70928;SHT31;58587;53.034;18.576;2023-05-02T15:03:45;19.45;48.39
70928;SHT31;58587;53.034;18.576;2023-05-02T15:06:11;19.25;48.67
70928;SHT31;58587;53.034;18.576;2023-05-02T15:08:36;19.42;49.09
70928;SHT31;58587;53.034;18.576;2023-05-02T15:11:02;19.42;48.69
70928;SHT31;58587;53.034;18.576;2023-05-02T15:13:27;18.94;49.18
70928;SHT31;58587;53.034;18.576;2023-05-02T15:15:52;18.94;49.34
70928;SHT31;58587;53.034;18.576;2023-05-02T15:18:19;18.94;49.54
70928;SHT31;58587;53.034;18.576;2023-05-02T15:20:46;18.60;50.16
70928;SHT31;58587;53.034;18.576;2023-05-02T15:23:11;18.56;50.73
70928;SHT31;58587;53.034;18.576;2023-05-02T15:25:36;18.33;51.20
70928;SHT31;58587;53.034;18.576;2023-05-02T15:28:02;18.41;51.17
70928;SHT31;58587;53.034;18.576;2023-05-02T15:30:28;18.48;51.28
70928;SHT31;58587;53.034;18.576;2023-05-02T15:32:53;18.29;51.79
70928;SHT31;58587;53.034;18.576;2023-05-02T15:35:18;17.89;52.47
70928;SHT31;58587;53.034;18.576;2023-05-02T15:37:44;17.99;52.40
70928;SHT31;58587;53.034;18.576;2023-05-02T15:40:09;18.13;51.94
70928;SHT31;58587;53.034;18.576;2023-05-02T15:42:35;18.20;51.95
70928;SHT31;58587;53.034;18.576;2023-05-02T15:45:01;18.19;52.07
70928;SHT31;58587;53.034;18.576;2023-05-02T15:47:26;17.72;52.30
70928;SHT31;58587;53.034;18.576;2023-05-02T15:49:51;17.59;53.25
70928;SHT31;58587;53.034;18.576;2023-05-02T15:52:19;17.61;52.98
70928;SHT31;58587;53.034;18.576;2023-05-02T15:54:44;17.36;53.61
70928;SHT31;58587;53.034;18.576;2023-05-02T15:57:09;17.35;53.92
70928;SHT31;58587;53.034;18.576;2023-05-02T15:59:36;17.12;54.35
70928;SHT31;58587;53.034;18.576;2023-05-02T16:02:02;17.24;54.96
70928;SHT31;58587;53.034;18.576;2023-05-02T16:04:27;17.01;54.63
70928;SHT31;58587;53.034;18.576;2023-05-02T16:06:53;17.08;54.34
70928;SHT31;58587;53.034;18.576;2023-05-02T16:09:18;16.94;54.39
70928;SHT31;58587;53.034;18.576;2023-05-02T16:11:45;16.85;54.69
70928;SHT31;58587;53.034;18.576;2023-05-02T16:14:10;16.95;54.57
70928;SHT31;58587;53.034;18.576;2023-05-02T16:16:36;16.95;54.39
70928;SHT31;58587;53.034;18.576;2023-05-02T16:19:01;16.95;54.93
70928;SHT31;58587;53.034;18.576;2023-05-02T16:21:27;16.79;55.19
70928;SHT31;58587;53.034;18.576;2023-05-02T16:23:52;16.88;54.88
70928;SHT31;58587;53.034;18.576;2023-05-02T16:26:17;16.74;54.67
70928;SHT31;58587;53.034;18.576;2023-05-02T16:28:44;16.64;54.91
70928;SHT31;58587;53.034;18.576;2023-05-02T16:31:10;16.56;55.62
70928;SHT31;58587;53.034;18.576;2023-05-02T16:33:36;16.59;55.47
70928;SHT31;58587;53.034;18.576;2023-05-02T16:36:03;16.45;55.68
70928;SHT31;58587;53.034;18.576;2023-05-02T16:38:29;16.43;55.27
70928;SHT31;58587;53.034;18.576;2023-05-02T16:40:54;16.28;53.85
70928;SHT31;58587;53.034;18.576;2023-05-02T16:43:20;16.04;55.09
70928;SHT31;58587;53.034;18.576;2023-05-02T16:45:45;15.94;54.84
70928;SHT31;58587;53.034;18.576;2023-05-02T16:48:11;15.89;55.63
70928;SHT31;58587;53.034;18.576;2023-05-02T16:50:36;15.72;55.82
70928;SHT31;58587;53.034;18.576;2023-05-02T16:53:02;15.89;55.55
70928;SHT31;58587;53.034;18.576;2023-05-02T16:55:27;15.82;55.74
70928;SHT31;58587;53.034;18.576;2023-05-02T16:57:52;15.88;56.15
70928;SHT31;58587;53.034;18.576;2023-05-02T17:00:18;15.92;55.58
70928;SHT31;58587;53.034;18.576;2023-05-02T17:02:43;15.75;55.85
70928;SHT31;58587;53.034;18.576;2023-05-02T17:05:09;15.75;56.40
70928;SHT31;58587;53.034;18.576;2023-05-02T17:07:35;15.61;56.32
70928;SHT31;58587;53.034;18.576;2023-05-02T17:10:00;15.75;56.59
70928;SHT31;58587;53.034;18.576;2023-05-02T17:12:26;15.69;57.25
70928;SHT31;58587;53.034;18.576;2023-05-02T17:14:51;15.72;55.77
70928;SHT31;58587;53.034;18.576;2023-05-02T17:17:17;15.61;55.98
70928;SHT31;58587;53.034;18.576;2023-05-02T17:19:44;15.50;56.27
70928;SHT31;58587;53.034;18.576;2023-05-02T17:22:11;15.41;56.41
70928;SHT31;58587;53.034;18.576;2023-05-02T17:24:36;15.23;56.82
70928;SHT31;58587;53.034;18.576;2023-05-02T17:27:02;15.16;57.01
70928;SHT31;58587;53.034;18.576;2023-05-02T17:29:28;15.08;57.76
70928;SHT31;58587;53.034;18.576;2023-05-02T17:31:53;15.06;57.72
70928;SHT31;58587;53.034;18.576;2023-05-02T17:34:21;14.99;58.21
70928;SHT31;58587;53.034;18.576;2023-05-02T17:36:50;14.94;58.37
70928;SHT31;58587;53.034;18.576;2023-05-02T17:39:16;14.97;58.13
70928;SHT31;58587;53.034;18.576;2023-05-02T17:41:41;15.04;57.81
70928;SHT31;58587;53.034;18.576;2023-05-02T17:44:06;14.94;58.20
70928;SHT31;58587;53.034;18.576;2023-05-02T17:46:32;14.93;58.08
70928;SHT31;58587;53.034;18.576;2023-05-02T17:48:57;14.92;58.16
70928;SHT31;58587;53.034;18.576;2023-05-02T17:51:23;14.87;59.39
70928;SHT31;58587;53.034;18.576;2023-05-02T17:53:51;14.76;57.85
70928;SHT31;58587;53.034;18.576;2023-05-02T17:56:17;14.72;57.80
70928;SHT31;58587;53.034;18.576;2023-05-02T17:58:43;14.55;57.70
70928;SHT31;58587;53.034;18.576;2023-05-02T18:01:09;14.51;58.20
70928;SHT31;58587;53.034;18.576;2023-05-02T18:03:36;14.39;58.48
70928;SHT31;58587;53.034;18.576;2023-05-02T18:06:01;14.29;59.07
70928;SHT31;58587;53.034;18.576;2023-05-02T18:08:27;14.19;59.00
70928;SHT31;58587;53.034;18.576;2023-05-02T18:10:55;13.98;58.73
70928;SHT31;58587;53.034;18.576;2023-05-02T18:13:20;13.94;58.74
70928;SHT31;58587;53.034;18.576;2023-05-02T18:15:56;13.79;59.21
70928;SHT31;58587;53.034;18.576;2023-05-02T18:18:22;13.66;59.87
70928;SHT31;58587;53.034;18.576;2023-05-02T18:20:47;13.64;59.08
70928;SHT31;58587;53.034;18.576;2023-05-02T18:23:12;13.44;59.96
70928;SHT31;58587;53.034;18.576;2023-05-02T18:25:38;13.39;59.87
70928;SHT31;58587;53.034;18.576;2023-05-02T18:28:03;13.23;60.27
70928;SHT31;58587;53.034;18.576;2023-05-02T18:30:29;13.19;60.61
70928;SHT31;58587;53.034;18.576;2023-05-02T18:32:54;13.10;61.38
70928;SHT31;58587;53.034;18.576;2023-05-02T18:35:19;12.95;61.66
70928;SHT31;58587;53.034;18.576;2023-05-02T18:37:45;12.88;61.37
70928;SHT31;58587;53.034;18.576;2023-05-02T18:40:10;12.79;63.15
70928;SHT31;58587;53.034;18.576;2023-05-02T18:42:36;12.71;64.00
70928;SHT31;58587;53.034;18.576;2023-05-02T18:45:02;12.61;64.12
70928;SHT31;58587;53.034;18.576;2023-05-02T18:47:29;12.49;65.33
70928;SHT31;58587;53.034;18.576;2023-05-02T18:49:55;12.37;65.72
70928;SHT31;58587;53.034;18.576;2023-05-02T18:52:22;12.27;66.43
70928;SHT31;58587;53.034;18.576;2023-05-02T18:54:48;12.20;66.90
70928;SHT31;58587;53.034;18.576;2023-05-02T18:57:14;12.07;66.67
70928;SHT31;58587;53.034;18.576;2023-05-02T18:59:39;12.01;65.16
70928;SHT31;58587;53.034;18.576;2023-05-02T19:02:05;11.98;65.04
70928;SHT31;58587;53.034;18.576;2023-05-02T19:04:30;11.95;64.59
70928;SHT31;58587;53.034;18.576;2023-05-02T19:06:56;11.91;64.63
70928;SHT31;58587;53.034;18.576;2023-05-02T19:09:21;11.87;65.21
70928;SHT31;58587;53.034;18.576;2023-05-02T19:11:46;11.77;64.66
70928;SHT31;58587;53.034;18.576;2023-05-02T19:14:12;11.76;63.84
70928;SHT31;58587;53.034;18.576;2023-05-02T19:16:37;11.70;64.34
70928;SHT31;58587;53.034;18.576;2023-05-02T19:19:05;11.67;64.10
70928;SHT31;58587;53.034;18.576;2023-05-02T19:21:30;11.60;63.96
70928;SHT31;58587;53.034;18.576;2023-05-02T19:23:56;11.52;64.30
70928;SHT31;58587;53.034;18.576;2023-05-02T19:26:21;11.43;64.83
70928;SHT31;58587;53.034;18.576;2023-05-02T19:28:47;11.40;64.77
70928;SHT31;58587;53.034;18.576;2023-05-02T19:31:15;11.35;64.77
70928;SHT31;58587;53.034;18.576;2023-05-02T19:33:41;11.26;65.57
70928;SHT31;58587;53.034;18.576;2023-05-02T19:36:17;11.22;65.00
70928;SHT31;58587;53.034;18.576;2023-05-02T19:38:42;11.14;66.37
70928;SHT31;58587;53.034;18.576;2023-05-02T19:41:08;11.09;65.75
70928;SHT31;58587;53.034;18.576;2023-05-02T19:43:33;11.01;65.60
70928;SHT31;58587;53.034;18.576;2023-05-02T19:45:59;11.02;65.10
70928;SHT31;58587;53.034;18.576;2023-05-02T19:48:25;10.98;65.74
70928;SHT31;58587;53.034;18.576;2023-05-02T19:50:50;10.91;65.43
70928;SHT31;58587;53.034;18.576;2023-05-02T19:53:16;10.88;66.39
70928;SHT31;58587;53.034;18.576;2023-05-02T19:55:41;10.81;65.84
70928;SHT31;58587;53.034;18.576;2023-05-02T19:58:06;10.85;65.55
70928;SHT31;58587;53.034;18.576;2023-05-02T20:00:32;10.86;65.33
70928;SHT31;58587;53.034;18.576;2023-05-02T20:02:58;10.84;66.62
70928;SHT31;58587;53.034;18.576;2023-05-02T20:05:23;10.84;65.93
70928;SHT31;58587;53.034;18.576;2023-05-02T20:07:48;10.86;66.37
70928;SHT31;58587;53.034;18.576;2023-05-02T20:10:14;10.85;65.58
70928;SHT31;58587;53.034;18.576;2023-05-02T20:12:39;10.84;65.31
70928;SHT31;58587;53.034;18.576;2023-05-02T20:15:09;10.85;64.44
70928;SHT31;58587;53.034;18.576;2023-05-02T20:17:35;10.85;63.88
70928;SHT31;58587;53.034;18.576;2023-05-02T20:20:01;10.85;64.43
70928;SHT31;58587;53.034;18.576;2023-05-02T20:22:31;10.85;63.52
70928;SHT31;58587;53.034;18.576;2023-05-02T20:24:56;10.84;63.30
70928;SHT31;58587;53.034;18.576;2023-05-02T20:27:22;10.81;63.44
70928;SHT31;58587;53.034;18.576;2023-05-02T20:29:47;10.74;62.45
70928;SHT31;58587;53.034;18.576;2023-05-02T20:32:12;10.79;62.60
70928;SHT31;58587;53.034;18.576;2023-05-02T20:34:38;10.79;62.79
70928;SHT31;58587;53.034;18.576;2023-05-02T20:37:04;10.82;62.16
70928;SHT31;58587;53.034;18.576;2023-05-02T20:39:31;10.82;62.51
70928;SHT31;58587;53.034;18.576;2023-05-02T20:41:56;10.82;62.42
70928;SHT31;58587;53.034;18.576;2023-05-02T20:44:22;10.81;63.37
70928;SHT31;58587;53.034;18.576;2023-05-02T20:46:49;10.79;62.56
70928;SHT31;58587;53.034;18.576;2023-05-02T20:49:15;10.79;61.29
70928;SHT31;58587;53.034;18.576;2023-05-02T20:51:40;10.76;61.54
70928;SHT31;58587;53.034;18.576;2023-05-02T20:54:06;10.78;61.70
70928;SHT31;58587;53.034;18.576;2023-05-02T20:56:31;10.76;61.46
70928;SHT31;58587;53.034;18.576;2023-05-02T20:58:56;10.72;61.52
70928;SHT31;58587;53.034;18.576;2023-05-02T21:01:22;10.71;62.00
70928;SHT31;58587;53.034;18.576;2023-05-02T21:03:47;10.71;61.77
70928;SHT31;58587;53.034;18.576;2023-05-02T21:06:13;10.72;63.34
70928;SHT31;58587;53.034;18.576;2023-05-02T21:08:38;10.67;62.88
70928;SHT31;58587;53.034;18.576;2023-05-02T21:11:13;10.65;61.99
70928;SHT31;58587;53.034;18.576;2023-05-02T21:13:39;10.65;61.38
70928;SHT31;58587;53.034;18.576;2023-05-02T21:16:15;10.65;61.27
70928;SHT31;58587;53.034;18.576;2023-05-02T21:18:40;10.64;61.81
70928;SHT31;58587;53.034;18.576;2023-05-02T21:21:05;10.64;61.35
70928;SHT31;58587;53.034;18.576;2023-05-02T21:23:31;10.65;61.16
70928;SHT31;58587;53.034;18.576;2023-05-02T21:25:56;10.64;61.15
70928;SHT31;58587;53.034;18.576;2023-05-02T21:28:22;10.58;61.06
70928;SHT31;58587;53.034;18.576;2023-05-02T21:30:47;10.55;61.82
70928;SHT31;58587;53.034;18.576;2023-05-02T21:33:12;10.55;60.98